Accueil
METAR-TAF:

METAR-TAF

Aéroports :

Adıyaman, Turquie

latitude: 37-43-54N, longitude: 38-28-08E, altitude: 675 m

Observation

Le bulletin a été fait il y a 1 heure et 10 minutes, à 07:50 UTC
Vent 6 kt de nord
Température 11°C
Humidité 43%
Pression 1026 hPa
Visibilité 10 km ou plus
pas de nuages en-dessous de 1500 mètres et pas de cumulonimbus.

METAR: LTCP 170750Z 36006KT CAVOK 11/M01 Q1026

Heure: 12:00 (09:00 UTC)

Prévision

Le bulletin a été fait il y a 1 heure et 20 minutes, à 07:40 UTC
Prévision valable du 17 à 09 UTC au 17 à 18 UTC
Vent 2 kt de direction variable
Visibilité 10 km ou plus
Quelques nuages à une hauteur de 4000 ft
Nuages épars à une hauteur de 10000 ft
Evoluant progressivement
du 17 à 15 UTC au 17 à 17 UTC
Visibilité 10 km ou plus
pas de nuages en-dessous de 1500 mètres et pas de cumulonimbus.

TAF: LTCP 170740Z 1709/1718 VRB02KT 9999 FEW040 SCT100 BECMG 1715/1717 CAVOK

Observations et prévisions météorologiques de plus de 4000 aéroports (messages METAR et TAF).

Les stations disponibles sont représentées par des disques jaunes et rouges sur la carte.

Passer la souris dessus pour voir le nom de la station.

Cliquer dessus pour voir les observations et prévisions météorologiques.

Pour changer de carte: cliquez sur les boutons verts avec une croix noire pour zoomer, sur le bouton vert avec un tiret pour effectuer un zoom arrière, ou sur les flèches vertes pour les cartes adjacentes.


METAR-TAF: